Time;durP1;ratioP1;P1;durP2;ratioP2;P2;SDS_P1;SDS_P2;PMS_P1;PMS_P2;Temp;Humidity;BMP_temperature;BMP_pressure;BME280_temperature;BME280_humidity;BME280_pressure;Samples;Min_cycle;Max_cycle;Signal;HPM_P1;HPM_P2
2022/10/02 00:02:15;;;;;;;;;;;;;;;;;;5091781;28;1118;-73
2022/10/02 00:04:43;;;;;;;;;;;;;;;;;;5091868;28;795;-73
2022/10/02 00:07:10;;;;;;;;;;;;;;;;;;5091794;28;1183;-73
2022/10/02 00:09:37;;;;;;;;;;;;;;;;;;5091642;28;1375;-73
2022/10/02 00:12:07;;;;;;;;;;;;;;;;;;5091308;28;1905;-73
2022/10/02 00:14:34;;;;;;;;;;;;;;;;;;5092097;28;928;-73
2022/10/02 00:17:01;;;;;;;;;;;;;;;;;;5091572;28;1068;-73
2022/10/02 00:19:27;;;;;;;;;;;;;;;;;;5091455;28;1391;-73
2022/10/02 00:21:56;;;;;;;;;;;;;;;;;;5091197;28;1111;-73
2022/10/02 00:24:23;;;;;;;;;;;;;;;;;;5091249;28;1055;-73
2022/10/02 00:26:51;;;;;;;;;;;;;;;;;;5091205;28;846;-73
2022/10/02 00:29:24;;;;;;;;;;;;;;;;;;5089823;28;1375;-73
2022/10/02 00:31:51;;;;;;;;;;;;;;;;;;5090678;28;1975;-73
2022/10/02 00:34:20;;;;;;;;;;;;;;;;;;5091250;28;798;-73
2022/10/02 00:36:48;;;;;;;;;;;;;;;;;;5090076;28;1076;-73
2022/10/02 00:39:17;;;;;;;;;;;;;;;;;;5090542;28;1367;-74
2022/10/02 00:41:52;;;;;;;;;;;;;;;;;;5090891;28;686;-73
2022/10/02 00:44:25;;;;;;;;;;;;;;;;;;5091427;28;1075;-73
2022/10/02 00:46:52;;;;;;;;;;;;;;;;;;5091129;28;1131;-73
2022/10/02 00:49:31;;;;;;;;;;;;;;;;;;5089898;28;1332;-73
2022/10/02 00:52:01;;;;;;;;;;;;;;;;;;5091083;28;1918;-72
2022/10/02 00:54:43;;;;;;;;;;;;;;;;;;5091001;28;774;-73
2022/10/02 00:57:11;;;;;;;;;;;;;;;;;;5091210;28;1047;-73
2022/10/02 00:59:44;;;;;;;;;;;;;;;;;;5091237;28;1359;-73
2022/10/02 01:02:11;;;;;;;;;;;;;;;;;;5090827;28;822;-73
2022/10/02 01:04:38;;;;;;;;;;;;;;;;;;5091070;28;1007;-73
2022/10/02 01:07:04;;;;;;;;;;;;;;;;;;5090898;28;984;-73
2022/10/02 01:09:30;;;;;;;;;;;;;;;;;;5090792;28;1290;-73
2022/10/02 01:11:56;;;;;;;;;;;;;;;;;;5089100;28;1918;-73
2022/10/02 01:14:30;;;;;;;;;;;;;;;;;;5090178;28;1517;-73
2022/10/02 01:16:58;;;;;;;;;;;;;;;;;;5086701;28;1443;-73
2022/10/02 01:19:25;;;;;;;;;;;;;;;;;;5090631;28;1254;-73
2022/10/02 01:21:52;;;;;;;;;;;;;;;;;;5090640;28;1142;-73
2022/10/02 01:24:19;;;;;;;;;;;;;;;;;;5090760;28;944;-73
2022/10/02 01:26:47;;;;;;;;;;;;;;;;;;5090848;28;1044;-73
2022/10/02 01:29:13;;;;;;;;;;;;;;;;;;5090746;28;1289;-73
2022/10/02 01:31:39;;;;;;;;;;;;;;;;;;5090425;28;1910;-73
2022/10/02 01:34:05;;;;;;;;;;;;;;;;;;5090852;28;1103;-73
2022/10/02 01:36:32;;;;;;;;;;;;;;;;;;5089324;28;1360;-74
2022/10/02 01:38:58;;;;;;;;;;;;;;;;;;5090500;28;1363;-73
2022/10/02 01:41:24;;;;;;;;;;;;;;;;;;5090456;28;1138;-73
2022/10/02 01:43:52;;;;;;;;;;;;;;;;;;5090574;28;1071;-73
2022/10/02 01:46:24;;;;;;;;;;;;;;;;;;5090785;28;1055;-73
2022/10/02 01:48:53;;;;;;;;;;;;;;;;;;5089684;28;1402;-73
2022/10/02 01:51:38;;;;;;;;;;;;;;;;;;5094185;28;1918;-72
2022/10/02 01:54:07;;;;;;;;;;;;;;;;;;5083832;28;1124;-73
2022/10/02 01:56:35;;;;;;;;;;;;;;;;;;5094266;28;1063;-73
2022/10/02 01:59:04;;;;;;;;;;;;;;;;;;5092922;28;1363;-73
2022/10/02 02:01:34;;;;;;;;;;;;;;;;;;5092504;28;948;-73
2022/10/02 02:04:00;;;;;;;;;;;;;;;;;;5092589;28;865;-73
2022/10/02 02:06:28;;;;;;;;;;;;;;;;;;5090748;28;912;-73
2022/10/02 02:08:56;;;;;;;;;;;;;;;;;;5090322;28;1351;-73
2022/10/02 02:11:23;;;;;;;;;;;;;;;;;;5089980;28;1910;-73
2022/10/02 02:13:50;;;;;;;;;;;;;;;;;;5089797;28;1105;-73
2022/10/02 02:16:21;;;;;;;;;;;;;;;;;;5092230;28;1007;-73
2022/10/02 02:18:48;;;;;;;;;;;;;;;;;;5092478;28;1298;-73
2022/10/02 02:21:15;;;;;;;;;;;;;;;;;;5093759;28;1075;-72
2022/10/02 02:23:41;;;;;;;;;;;;;;;;;;5093489;28;1190;-74
2022/10/02 02:26:08;;;;;;;;;;;;;;;;;;5092252;28;1556;-73
2022/10/02 02:28:34;;;;;;;;;;;;;;;;;;5093609;28;1473;-73
2022/10/02 02:31:00;;;;;;;;;;;;;;;;;;5093502;28;952;-74
2022/10/02 02:33:30;;;;;;;;;;;;;;;;;;5093419;28;1977;-74
2022/10/02 02:35:56;;;;;;;;;;;;;;;;;;5093486;28;1007;-73
2022/10/02 02:38:23;;;;;;;;;;;;;;;;;;5093630;28;971;-73
2022/10/02 02:40:50;;;;;;;;;;;;;;;;;;5093088;28;1304;-73
2022/10/02 02:43:16;;;;;;;;;;;;;;;;;;5091809;28;1366;-74
2022/10/02 02:45:44;;;;;;;;;;;;;;;;;;5080387;28;1107;-73
2022/10/02 02:48:10;;;;;;;;;;;;;;;;;;5072610;28;1215;-73
2022/10/02 02:50:39;;;;;;;;;;;;;;;;;;5071693;28;1329;-73
2022/10/02 02:53:06;;;;;;;;;;;;;;;;;;5072148;28;1976;-73
2022/10/02 02:55:32;;;;;;;;;;;;;;;;;;5072348;28;1406;-73
2022/10/02 02:58:09;;;;;;;;;;;;;;;;;;5071226;28;1315;-73
2022/10/02 03:00:36;;;;;;;;;;;;;;;;;;5069322;28;1483;-73
2022/10/02 03:03:02;;;;;;;;;;;;;;;;;;5072010;28;1282;-74
2022/10/02 03:05:28;;;;;;;;;;;;;;;;;;5069628;28;1307;-74
2022/10/02 03:07:56;;;;;;;;;;;;;;;;;;5071700;28;1278;-74
2022/10/02 03:10:27;;;;;;;;;;;;;;;;;;5070870;28;1471;-74
2022/10/02 03:12:56;;;;;;;;;;;;;;;;;;5068090;28;1977;-73
2022/10/02 03:15:25;;;;;;;;;;;;;;;;;;5070659;28;1318;-72
2022/10/02 03:18:01;;;;;;;;;;;;;;;;;;5069455;28;1270;-74
2022/10/02 03:20:28;;;;;;;;;;;;;;;;;;5070930;28;1396;-74
2022/10/02 03:22:58;;;;;;;;;;;;;;;;;;5070505;28;1199;-74
2022/10/02 03:25:28;;;;;;;;;;;;;;;;;;5070463;28;1252;-74
2022/10/02 03:27:56;;;;;;;;;;;;;;;;;;5069622;28;953;-73
2022/10/02 03:30:23;;;;;;;;;;;;;;;;;;5069798;28;1290;-74
2022/10/02 03:32:52;;;;;;;;;;;;;;;;;;5069322;28;1971;-74
2022/10/02 03:35:18;;;;;;;;;;;;;;;;;;5069086;28;1075;-74
2022/10/02 03:37:45;;;;;;;;;;;;;;;;;;5069703;28;803;-74
2022/10/02 03:40:12;;;;;;;;;;;;;;;;;;5069351;28;1278;-74
2022/10/02 03:42:38;;;;;;;;;;;;;;;;;;5067723;28;1044;-73
2022/10/02 03:45:05;;;;;;;;;;;;;;;;;;5069435;28;843;-74
2022/10/02 03:47:31;;;;;;;;;;;;;;;;;;5069996;28;928;-73
2022/10/02 03:49:58;;;;;;;;;;;;;;;;;;5069642;28;1379;-74
2022/10/02 03:52:24;;;;;;;;;;;;;;;;;;5069409;28;1910;-73
2022/10/02 03:54:51;;;;;;;;;;;;;;;;;;5067557;28;1048;-74
2022/10/02 03:57:20;;;;;;;;;;;;;;;;;;5067830;28;1052;-73
2022/10/02 03:59:46;;;;;;;;;;;;;;;;;;5069655;28;1292;-73
2022/10/02 04:02:16;;;;;;;;;;;;;;;;;;5068940;28;1118;-74
2022/10/02 04:04:44;;;;;;;;;;;;;;;;;;5069300;28;897;-74
2022/10/02 04:07:11;;;;;;;;;;;;;;;;;;5069273;28;1112;-74
2022/10/02 04:09:39;;;;;;;;;;;;;;;;;;5069688;28;1294;-73
2022/10/02 04:12:07;;;;;;;;;;;;;;;;;;5068214;28;2107;-73
2022/10/02 04:14:36;;;;;;;;;;;;;;;;;;5068929;28;928;-73
2022/10/02 04:17:03;;;;;;;;;;;;;;;;;;5069054;28;1118;-73
2022/10/02 04:19:32;;;;;;;;;;;;;;;;;;5068856;28;1388;-73
2022/10/02 04:21:59;;;;;;;;;;;;;;;;;;5068422;28;1134;-73
2022/10/02 04:24:28;;;;;;;;;;;;;;;;;;5069341;28;806;-74
2022/10/02 04:26:57;;;;;;;;;;;;;;;;;;5069185;28;1028;-74
2022/10/02 04:29:23;;;;;;;;;;;;;;;;;;5068329;28;1300;-73
2022/10/02 04:31:52;;;;;;;;;;;;;;;;;;5068262;28;1979;-73
2022/10/02 04:34:19;;;;;;;;;;;;;;;;;;5068904;28;1055;-73
2022/10/02 04:36:47;;;;;;;;;;;;;;;;;;5069008;28;850;-74
2022/10/02 04:39:26;;;;;;;;;;;;;;;;;;5068754;28;1289;-73
2022/10/02 04:41:57;;;;;;;;;;;;;;;;;;5068942;28;857;-73
2022/10/02 04:44:28;;;;;;;;;;;;;;;;;;5069072;28;945;-73
2022/10/02 04:47:01;;;;;;;;;;;;;;;;;;5068803;28;1138;-73
2022/10/02 04:49:46;;;;;;;;;;;;;;;;;;5067119;28;1324;-73
2022/10/02 04:52:22;;;;;;;;;;;;;;;;;;5068860;28;1973;-73
2022/10/02 04:54:51;;;;;;;;;;;;;;;;;;5068447;28;1395;-73
2022/10/02 04:57:24;;;;;;;;;;;;;;;;;;5068963;28;1233;-73
2022/10/02 05:00:01;;;;;;;;;;;;;;;;;;5064210;28;1354;-74
2022/10/02 05:02:32;;;;;;;;;;;;;;;;;;5089104;28;999;-73
2022/10/02 05:05:01;;;;;;;;;;;;;;;;;;5089542;28;866;-73
2022/10/02 05:07:34;;;;;;;;;;;;;;;;;;5089738;28;837;-73
2022/10/02 05:10:02;;;;;;;;;;;;;;;;;;5083104;22;3592;-72
2022/10/02 05:12:38;;;;;;;;;;;;;;;;;;5038315;28;2279;-72
2022/10/02 05:15:19;;;;;;;;;;;;;;;;;;5039176;28;1165;-72
2022/10/02 05:18:01;;;;;;;;;;;;;;;;;;5024738;28;1366;-72
2022/10/02 05:20:35;;;;;;;;;;;;;;;;;;5031844;28;1983;-72
2022/10/02 05:23:09;;;;;;;;;;;;;;;;;;5037651;28;1534;-72
2022/10/02 05:25:45;;;;;;;;;;;;;;;;;;5033428;28;1288;-73
2022/10/02 05:28:18;;;;;;;;;;;;;;;;;;5032782;28;1071;-72
2022/10/02 05:30:45;;;;;;;;;;;;;;;;;;5032058;28;1593;-73
2022/10/02 05:33:16;;;;;;;;;;;;;;;;;;5039859;28;1979;-72
2022/10/02 05:35:46;;;;;;;;;;;;;;;;;;5030735;28;871;-72
2022/10/02 05:38:16;;;;;;;;;;;;;;;;;;5031139;28;1162;-72
2022/10/02 05:40:43;;;;;;;;;;;;;;;;;;5030680;28;1507;-73
2022/10/02 05:43:10;;;;;;;;;;;;;;;;;;5058375;28;1583;-73
2022/10/02 05:45:37;;;;;;;;;;;;;;;;;;5040905;28;1435;-74
2022/10/02 05:48:05;;;;;;;;;;;;;;;;;;5032205;28;1640;-74
2022/10/02 05:50:35;;;;;;;;;;;;;;;;;;5030258;28;1332;-74
2022/10/02 05:53:01;;;;;;;;;;;;;;;;;;5029688;28;1914;-74
2022/10/02 05:55:28;;;;;;;;;;;;;;;;;;5043626;28;1177;-74
2022/10/02 05:57:55;;;;;;;;;;;;;;;;;;5035062;28;1149;-74
2022/10/02 06:00:24;;;;;;;;;;;;;;;;;;5031788;28;1329;-74
2022/10/02 06:02:52;;;;;;;;;;;;;;;;;;5038995;28;1351;-74
2022/10/02 06:05:19;;;;;;;;;;;;;;;;;;5043103;28;979;-74
2022/10/02 06:07:47;;;;;;;;;;;;;;;;;;5049455;28;1505;-74
2022/10/02 06:10:15;;;;;;;;;;;;;;;;;;5045171;28;1422;-73
2022/10/02 06:12:42;;;;;;;;;;;;;;;;;;5046113;28;1914;-74
2022/10/02 06:15:11;;;;;;;;;;;;;;;;;;5035059;28;1296;-75
2022/10/02 06:17:39;;;;;;;;;;;;;;;;;;5029800;28;1119;-74
2022/10/02 06:20:12;;;;;;;;;;;;;;;;;;5037854;28;1466;-75
2022/10/02 06:22:39;;;;;;;;;;;;;;;;;;5057917;28;1351;-74
2022/10/02 06:25:08;;;;;;;;;;;;;;;;;;5031815;28;1134;-74
2022/10/02 06:27:36;;;;;;;;;;;;;;;;;;5031775;28;1083;-73
2022/10/02 06:30:03;;;;;;;;;;;;;;;;;;5065791;28;1439;-74
2022/10/02 06:32:32;;;;;;;;;;;;;;;;;;5042996;28;1989;-74
2022/10/02 06:34:58;;;;;;;;;;;;;;;;;;5047829;28;1415;-74
2022/10/02 06:37:28;;;;;;;;;;;;;;;;;;5037713;28;1414;-74
2022/10/02 06:39:58;;;;;;;;;;;;;;;;;;5032766;28;1350;-74
2022/10/02 06:42:31;;;;;;;;;;;;;;;;;;5037077;28;1483;-75
2022/10/02 06:44:58;;;;;;;;;;;;;;;;;;5042989;28;1426;-74
2022/10/02 06:47:33;;;;;;;;;;;;;;;;;;5040698;28;1322;-76
2022/10/02 06:50:02;;;;;;;;;;;;;;;;;;5040894;28;1433;-75
2022/10/02 06:52:31;;;;;;;;;;;;;;;;;;5042382;28;1510;-75
2022/10/02 06:55:01;;;;;;;;;;;;;;;;;;5061998;28;1459;-76
2022/10/02 06:57:32;;;;;;;;;;;;;;;;;;5037172;28;1490;-76
2022/10/02 07:00:08;;;;;;;;;;;;;;;;;;5044792;28;1403;-75
2022/10/02 07:02:40;;;;;;;;;;;;;;;;;;5052853;28;806;-76
2022/10/02 07:05:16;;;;;;;;;;;;;;;;;;5050713;28;1362;-75
2022/10/02 07:07:45;;;;;;;;;;;;;;;;;;5041085;28;1345;-76
2022/10/02 07:10:14;;;;;;;;;;;;;;;;;;5044843;28;1412;-76
2022/10/02 07:12:46;;;;;;;;;;;;;;;;;;5050709;28;1918;-75
2022/10/02 07:15:18;;;;;;;;;;;;;;;;;;5042790;28;1157;-76
2022/10/02 07:17:48;;;;;;;;;;;;;;;;;;5036530;28;1469;-76
2022/10/02 07:20:18;;;;;;;;;;;;;;;;;;5041723;28;1392;-75
2022/10/02 07:22:50;;;;;;;;;;;;;;;;;;5035666;28;1204;-75
2022/10/02 07:25:35;;;;;;;;;;;;;;;;;;5031911;28;831;-75
2022/10/02 07:28:05;;;;;;;;;;;;;;;;;;5030436;28;1413;-76
2022/10/02 07:30:32;;;;;;;;;;;;;;;;;;5040595;28;1473;-76
2022/10/02 07:32:59;;;;;;;;;;;;;;;;;;5038913;28;1962;-75
2022/10/02 07:35:29;;;;;;;;;;;;;;;;;;5029692;28;944;-75
2022/10/02 07:37:58;;;;;;;;;;;;;;;;;;5030578;28;1135;-75
2022/10/02 07:40:27;;;;;;;;;;;;;;;;;;5037778;28;1534;-76
2022/10/02 07:43:09;;;;;;;;;;;;;;;;;;5037208;28;1481;-75
2022/10/02 07:45:37;;;;;;;;;;;;;;;;;;5027395;28;1370;-76
2022/10/02 07:48:18;;;;;;;;;;;;;;;;;;5036695;28;1214;-75
2022/10/02 07:50:50;;;;;;;;;;;;;;;;;;5039818;28;1421;-75
2022/10/02 07:53:17;;;;;;;;;;;;;;;;;;5046236;28;1979;-75
2022/10/02 07:55:43;;;;;;;;;;;;;;;;;;5041093;28;1366;-76
2022/10/02 07:58:10;;;;;;;;;;;;;;;;;;5039457;28;1393;-75
2022/10/02 08:00:38;;;;;;;;;;;;;;;;;;5039781;28;1510;-75
2022/10/02 08:03:06;;;;;;;;;;;;;;;;;;5042667;28;1089;-75
2022/10/02 08:05:32;;;;;;;;;;;;;;;;;;5050340;28;1114;-75
2022/10/02 08:08:00;;;;;;;;;;;;;;;;;;5039842;28;1523;-75
2022/10/02 08:10:26;;;;;;;;;;;;;;;;;;5038175;28;1361;-76
2022/10/02 08:12:55;;;;;;;;;;;;;;;;;;5028429;28;1363;-75
2022/10/02 08:15:22;;;;;;;;;;;;;;;;;;5030194;28;1914;-75
2022/10/02 08:17:50;;;;;;;;;;;;;;;;;;5028578;28;1159;-75
2022/10/02 08:20:18;;;;;;;;;;;;;;;;;;5028901;28;1416;-75
2022/10/02 08:22:45;;;;;;;;;;;;;;;;;;5030197;28;1142;-75
2022/10/02 08:25:13;;;;;;;;;;;;;;;;;;5031863;28;1080;-75
2022/10/02 08:27:45;;;;;;;;;;;;;;;;;;5032002;28;899;-75
2022/10/02 08:30:12;;;;;;;;;;;;;;;;;;5031776;28;1345;-75
2022/10/02 08:32:38;;;;;;;;;;;;;;;;;;5031431;28;822;-76
2022/10/02 08:35:08;;;;;;;;;;;;;;;;;;5030251;28;1922;-75
2022/10/02 08:37:35;;;;;;;;;;;;;;;;;;5031768;28;1060;-75
2022/10/02 08:40:09;;;;;;;;;;;;;;;;;;5031326;28;1356;-75
2022/10/02 08:42:51;;;;;;;;;;;;;;;;;;5031174;28;1107;-75
2022/10/02 08:45:22;;;;;;;;;;;;;;;;;;5030301;28;761;-75
2022/10/02 08:48:06;;;;;;;;;;;;;;;;;;5031291;28;846;-75
2022/10/02 08:50:44;;;;;;;;;;;;;;;;;;5041126;28;1539;-75
2022/10/02 08:53:28;;;;;;;;;;;;;;;;;;5051028;28;1914;-75
2022/10/02 08:56:03;;;;;;;;;;;;;;;;;;5051145;28;1289;-75
2022/10/02 08:58:33;;;;;;;;;;;;;;;;;;5050889;28;965;-75
2022/10/02 09:01:03;;;;;;;;;;;;;;;;;;5051063;28;1407;-75
2022/10/02 09:03:44;;;;;;;;;;;;;;;;;;5051067;28;1052;-74
2022/10/02 09:06:37;;;;;;;;;;;;;;;;;;5050206;28;1107;-75
2022/10/02 09:09:11;;;;;;;;;;;;;;;;;;5051406;28;798;-75
2022/10/02 09:11:43;;;;;;;;;;;;;;;;;;5050696;28;1373;-75
2022/10/02 09:14:18;;;;;;;;;;;;;;;;;;5051094;28;1918;-75
2022/10/02 09:16:50;;;;;;;;;;;;;;;;;;5051105;28;866;-74
2022/10/02 09:19:21;;;;;;;;;;;;;;;;;;5044538;28;1483;-75
2022/10/02 09:21:50;;;;;;;;;;;;;;;;;;5030498;28;1342;-75
2022/10/02 09:24:23;;;;;;;;;;;;;;;;;;5031226;28;1110;-75
2022/10/02 09:27:04;;;;;;;;;;;;;;;;;;5030950;28;1116;-75
2022/10/02 09:29:40;;;;;;;;;;;;;;;;;;5034993;28;1404;-75
2022/10/02 09:32:17;;;;;;;;;;;;;;;;;;5050546;28;970;-75
2022/10/02 09:34:53;;;;;;;;;;;;;;;;;;5050502;28;1969;-75
2022/10/02 09:37:23;;;;;;;;;;;;;;;;;;5050666;28;1127;-75
2022/10/02 09:39:57;;;;;;;;;;;;;;;;;;5050398;28;1698;-75
2022/10/02 09:42:28;;;;;;;;;;;;;;;;;;5050822;28;972;-76
2022/10/02 09:45:09;;;;;;;;;;;;;;;;;;5050706;28;858;-75
2022/10/02 09:47:53;;;;;;;;;;;;;;;;;;5050646;28;1015;-75
2022/10/02 09:50:33;;;;;;;;;;;;;;;;;;5049179;28;1414;-75
2022/10/02 09:53:10;;;;;;;;;;;;;;;;;;5049850;28;1071;-75
2022/10/02 09:55:48;;;;;;;;;;;;;;;;;;5049629;28;1918;-74
2022/10/02 09:58:27;;;;;;;;;;;;;;;;;;5050091;28;778;-75
2022/10/02 10:01:12;;;;;;;;;;;;;;;;;;5050064;28;1372;-75
2022/10/02 10:03:48;;;;;;;;;;;;;;;;;;5050594;28;890;-75
2022/10/02 10:06:24;;;;;;;;;;;;;;;;;;5050889;28;1127;-76
2022/10/02 10:09:00;;;;;;;;;;;;;;;;;;5051262;28;936;-76
2022/10/02 10:11:47;;;;;;;;;;;;;;;;;;5049393;28;1322;-76
2022/10/02 10:14:20;;;;;;;;;;;;;;;;;;5051253;28;1902;-76
2022/10/02 10:17:04;;;;;;;;;;;;;;;;;;5051975;28;1052;-76
2022/10/02 10:19:51;;;;;;;;;;;;;;;;;;5054146;28;1313;-76
2022/10/02 10:22:21;;;;;;;;;;;;;;;;;;5053271;28;1141;-76
2022/10/02 10:24:55;;;;;;;;;;;;;;;;;;5053605;28;1123;-74
2022/10/02 10:27:41;;;;;;;;;;;;;;;;;;5052520;28;1115;-75
2022/10/02 10:30:26;;;;;;;;;;;;;;;;;;5052192;28;1479;-75
2022/10/02 10:33:00;;;;;;;;;;;;;;;;;;5053383;28;968;-75
2022/10/02 10:35:41;;;;;;;;;;;;;;;;;;5051535;28;1928;-76
2022/10/02 10:38:32;;;;;;;;;;;;;;;;;;5049080;28;1321;-75
2022/10/02 10:41:03;;;;;;;;;;;;;;;;;;5049570;28;1328;-75
2022/10/02 10:43:40;;;;;;;;;;;;;;;;;;5049974;28;798;-75
2022/10/02 10:46:13;;;;;;;;;;;;;;;;;;5046380;28;1467;-76
2022/10/02 10:48:48;;;;;;;;;;;;;;;;;;5043522;28;1206;-75
2022/10/02 10:51:19;;;;;;;;;;;;;;;;;;5047250;28;1418;-76
2022/10/02 10:53:50;;;;;;;;;;;;;;;;;;5043369;28;1349;-76
2022/10/02 10:56:20;;;;;;;;;;;;;;;;;;5040674;28;1275;-76
2022/10/02 10:58:51;;;;;;;;;;;;;;;;;;5039180;28;1236;-76
2022/10/02 11:01:18;;;;;;;;;;;;;;;;;;5040186;28;1518;-76
2022/10/02 11:03:57;;;;;;;;;;;;;;;;;;5040746;28;1250;-76
2022/10/02 11:06:33;;;;;;;;;;;;;;;;;;5039856;28;1279;-76
2022/10/02 11:09:14;;;;;;;;;;;;;;;;;;5037673;28;1373;-76
2022/10/02 11:11:44;;;;;;;;;;;;;;;;;;5037602;28;1428;-76
2022/10/02 11:14:19;;;;;;;;;;;;;;;;;;5038302;28;1918;-76
2022/10/02 11:17:00;;;;;;;;;;;;;;;;;;5035737;28;1275;-76
2022/10/02 11:19:31;;;;;;;;;;;;;;;;;;5043671;28;1363;-76
2022/10/02 11:22:18;;;;;;;;;;;;;;;;;;5049430;28;1087;-76
2022/10/02 11:24:49;;;;;;;;;;;;;;;;;;5055530;22;2622;-72
2022/10/02 11:27:25;;;;;;;;;;;;;;;;;;5048484;28;1108;-70
2022/10/02 11:29:58;;;;;;;;;;;;;;;;;;5048996;28;918;-71
2022/10/02 11:32:38;;;;;;;;;;;;;;;;;;5049106;28;815;-70
2022/10/02 11:35:18;;;;;;;;;;;;;;;;;;5049622;28;1914;-70
2022/10/02 11:37:47;;;;;;;;;;;;;;;;;;5049238;28;1080;-70
2022/10/02 11:40:16;;;;;;;;;;;;;;;;;;5049560;28;1063;-70
2022/10/02 11:42:47;;;;;;;;;;;;;;;;;;5049998;28;1124;-72
2022/10/02 11:45:31;;;;;;;;;;;;;;;;;;5051756;28;1408;-71
2022/10/02 11:48:07;;;;;;;;;;;;;;;;;;5052354;28;2100;-71
2022/10/02 11:50:43;;;;;;;;;;;;;;;;;;5052157;28;628;-71
2022/10/02 11:53:13;;;;;;;;;;;;;;;;;;5050740;28;1119;-70
2022/10/02 11:55:44;;;;;;;;;;;;;;;;;;5051328;28;2009;-70
2022/10/02 11:58:14;;;;;;;;;;;;;;;;;;5051032;28;1130;-73
2022/10/02 12:01:04;;;;;;;;;;;;;;;;;;5051051;28;1368;-70
2022/10/02 12:03:35;;;;;;;;;;;;;;;;;;5048696;28;1279;-71
2022/10/02 12:06:03;;;;;;;;;;;;;;;;;;5050555;28;1483;-69
2022/10/02 12:08:33;;;;;;;;;;;;;;;;;;5050925;28;1340;-71
2022/10/02 12:11:03;;;;;;;;;;;;;;;;;;5048105;28;1306;-73
2022/10/02 12:13:33;;;;;;;;;;;;;;;;;;5050854;28;1268;-73
2022/10/02 12:16:02;;;;;;;;;;;;;;;;;;5071283;28;1979;-70
2022/10/02 12:18:32;;;;;;;;;;;;;;;;;;5051184;28;1138;-71
2022/10/02 12:29:25;;;;;;;;;;;;;;;;;;5028099;28;1239;-71
2022/10/02 12:31:52;;;;;;;;;;;;;;;;;;5039048;28;1331;-72
2022/10/02 12:34:27;;;;;;;;;;;;;;;;;;5047994;28;1922;-71
2022/10/02 12:36:57;;;;;;;;;;;;;;;;;;5041460;28;1442;-72
2022/10/02 12:39:30;;;;;;;;;;;;;;;;;;5043324;28;1370;-71
2022/10/02 12:41:59;;;;;;;;;;;;;;;;;;5048521;28;1138;-72
2022/10/02 12:44:42;;;;;;;;;;;;;;;;;;5049034;28;1297;-71
2022/10/02 12:47:23;;;;;;;;;;;;;;;;;;5047943;28;1447;-71
2022/10/02 12:49:50;;;;;;;;;;;;;;;;;;5044633;28;1376;-69
2022/10/02 12:52:34;;;;;;;;;;;;;;;;;;5048621;28;1102;-70
2022/10/02 12:55:27;;;;;;;;;;;;;;;;;;5048319;28;1930;-71
2022/10/02 12:58:06;;;;;;;;;;;;;;;;;;5000718;28;1307;-70
2022/10/02 13:00:35;;;;;;;;;;;;;;;;;;5046821;28;1079;-71
2022/10/02 13:03:16;;;;;;;;;;;;;;;;;;5044248;28;1419;-70
2022/10/02 13:06:02;;;;;;;;;;;;;;;;;;5047292;28;1438;-70
2022/10/02 13:08:41;;;;;;;;;;;;;;;;;;5047719;28;1470;-71
2022/10/02 13:11:09;;;;;;;;;;;;;;;;;;5048352;28;1364;-70
2022/10/02 13:13:43;;;;;;;;;;;;;;;;;;5051368;28;1510;-70
2022/10/02 13:16:11;;;;;;;;;;;;;;;;;;5041579;28;1914;-70
2022/10/02 13:18:57;;;;;;;;;;;;;;;;;;5050972;28;1412;-71
2022/10/02 13:21:25;;;;;;;;;;;;;;;;;;5048289;28;1630;-71
2022/10/02 13:23:54;;;;;;;;;;;;;;;;;;5044083;28;1339;-70
2022/10/02 13:26:22;;;;;;;;;;;;;;;;;;5041066;28;1460;-71
2022/10/02 13:28:54;;;;;;;;;;;;;;;;;;5050937;28;1071;-70
2022/10/02 13:31:23;;;;;;;;;;;;;;;;;;5049896;28;1084;-71
2022/10/02 13:33:54;;;;;;;;;;;;;;;;;;5049194;28;775;-73
2022/10/02 13:36:22;;;;;;;;;;;;;;;;;;5047880;28;1918;-68
2022/10/02 13:38:59;;;;;;;;;;;;;;;;;;5048419;28;1658;-71
2022/10/02 13:41:38;;;;;;;;;;;;;;;;;;5028640;28;1342;-71
2022/10/02 13:44:11;;;;;;;;;;;;;;;;;;5027568;28;913;-71
2022/10/02 13:46:43;;;;;;;;;;;;;;;;;;5033169;28;1425;-71
2022/10/02 13:49:11;;;;;;;;;;;;;;;;;;5032433;28;1221;-71
2022/10/02 13:51:39;;;;;;;;;;;;;;;;;;5039530;28;1520;-74
2022/10/02 13:54:10;;;;;;;;;;;;;;;;;;5049711;28;1497;-73
2022/10/02 13:56:42;;;;;;;;;;;;;;;;;;5047195;28;1910;-72
2022/10/02 13:59:15;;;;;;;;;;;;;;;;;;5053348;28;711;-71
2022/10/02 14:01:43;;;;;;;;;;;;;;;;;;5052708;28;2106;-71
2022/10/02 14:04:20;;;;;;;;;;;;;;;;;;5052903;28;1366;-71
2022/10/02 14:06:47;;;;;;;;;;;;;;;;;;5053844;28;1393;-73
2022/10/02 14:09:23;;;;;;;;;;;;;;;;;;5053687;28;1067;-71
2022/10/02 14:11:55;;;;;;;;;;;;;;;;;;5053607;28;869;-71
2022/10/02 14:14:25;;;;;;;;;;;;;;;;;;5052628;28;1156;-72
2022/10/02 14:16:54;;;;;;;;;;;;;;;;;;5053775;28;1977;-73
2022/10/02 14:19:23;;;;;;;;;;;;;;;;;;5053998;28;1043;-72
2022/10/02 14:21:51;;;;;;;;;;;;;;;;;;5053567;28;1004;-71
2022/10/02 14:24:21;;;;;;;;;;;;;;;;;;5053725;28;1122;-72
2022/10/02 14:26:52;;;;;;;;;;;;;;;;;;5053158;28;1323;-73
2022/10/02 14:29:29;;;;;;;;;;;;;;;;;;5051984;28;1258;-73
2022/10/02 14:32:13;;;;;;;;;;;;;;;;;;5051343;28;1507;-74
2022/10/02 14:34:53;;;;;;;;;;;;;;;;;;5046054;28;1442;-71
2022/10/02 14:37:29;;;;;;;;;;;;;;;;;;5048505;28;1926;-71
2022/10/02 14:39:55;;;;;;;;;;;;;;;;;;5046663;28;1361;-71
2022/10/02 14:42:29;;;;;;;;;;;;;;;;;;5050483;28;1354;-71
2022/10/02 14:45:04;;;;;;;;;;;;;;;;;;5046254;28;1442;-72
2022/10/02 14:47:46;;;;;;;;;;;;;;;;;;5042381;28;1410;-70
2022/10/02 14:50:19;;;;;;;;;;;;;;;;;;5046862;28;1405;-71
2022/10/02 14:53:00;;;;;;;;;;;;;;;;;;5046725;28;1512;-71
2022/10/02 14:55:29;;;;;;;;;;;;;;;;;;5048486;28;1981;-71
2022/10/02 14:57:59;;;;;;;;;;;;;;;;;;5048603;28;1580;-70
2022/10/02 15:00:26;;;;;;;;;;;;;;;;;;5049275;28;1430;-74
2022/10/02 15:03:10;;;;;;;;;;;;;;;;;;5050422;28;1581;-73
2022/10/02 15:05:46;;;;;;;;;;;;;;;;;;5043877;28;1379;-71
2022/10/02 15:08:13;;;;;;;;;;;;;;;;;;5050474;28;1107;-71
2022/10/02 15:10:39;;;;;;;;;;;;;;;;;;5049331;28;1410;-72
2022/10/02 15:13:05;;;;;;;;;;;;;;;;;;5049367;28;1248;-71
2022/10/02 15:15:33;;;;;;;;;;;;;;;;;;5050857;28;1975;-72
2022/10/02 15:18:11;;;;;;;;;;;;;;;;;;5051761;28;1395;-71
2022/10/02 15:20:39;;;;;;;;;;;;;;;;;;5045446;28;1483;-72
2022/10/02 15:23:06;;;;;;;;;;;;;;;;;;5050067;28;1130;-72
2022/10/02 15:25:38;;;;;;;;;;;;;;;;;;5051489;28;1434;-71
2022/10/02 15:28:05;;;;;;;;;;;;;;;;;;5047975;28;1378;-71
2022/10/02 15:30:33;;;;;;;;;;;;;;;;;;5051376;28;1134;-70
2022/10/02 15:33:10;;;;;;;;;;;;;;;;;;5050525;28;1298;-71
2022/10/02 15:35:53;;;;;;;;;;;;;;;;;;5051430;28;1981;-72
2022/10/02 15:38:35;;;;;;;;;;;;;;;;;;5049250;28;1437;-70
2022/10/02 15:41:10;;;;;;;;;;;;;;;;;;5037275;28;1403;-71
2022/10/02 15:43:39;;;;;;;;;;;;;;;;;;5050323;28;1275;-72
2022/10/02 15:46:09;;;;;;;;;;;;;;;;;;5049463;28;1392;-72
2022/10/02 15:48:41;;;;;;;;;;;;;;;;;;5051963;28;1433;-71
2022/10/02 15:51:09;;;;;;;;;;;;;;;;;;5052221;28;1067;-71
2022/10/02 15:53:37;;;;;;;;;;;;;;;;;;5050392;28;1549;-73
2022/10/02 15:56:10;;;;;;;;;;;;;;;;;;5052226;28;1975;-71
2022/10/02 15:58:44;;;;;;;;;;;;;;;;;;5050038;28;1126;-71
2022/10/02 16:01:14;;;;;;;;;;;;;;;;;;5050562;28;1339;-72
2022/10/02 16:03:43;;;;;;;;;;;;;;;;;;5050507;28;1484;-71
2022/10/02 16:06:11;;;;;;;;;;;;;;;;;;5049182;28;1412;-71
2022/10/02 16:08:41;;;;;;;;;;;;;;;;;;5049917;28;1446;-71
2022/10/02 16:11:17;;;;;;;;;;;;;;;;;;5051116;28;1142;-69
2022/10/02 16:13:47;;;;;;;;;;;;;;;;;;5047955;28;1356;-72
2022/10/02 16:16:21;;;;;;;;;;;;;;;;;;5051104;28;1930;-71
2022/10/02 16:18:52;;;;;;;;;;;;;;;;;;5048017;28;1415;-72
2022/10/02 16:21:24;;;;;;;;;;;;;;;;;;5044658;28;1365;-70
2022/10/02 16:23:54;;;;;;;;;;;;;;;;;;5046065;28;1117;-73
2022/10/02 16:26:23;;;;;;;;;;;;;;;;;;5047607;28;1392;-72
2022/10/02 16:28:51;;;;;;;;;;;;;;;;;;5046053;28;1375;-70
2022/10/02 16:31:24;;;;;;;;;;;;;;;;;;5046069;28;1363;-71
2022/10/02 16:33:55;;;;;;;;;;;;;;;;;;5049256;28;1115;-71
2022/10/02 16:36:28;;;;;;;;;;;;;;;;;;5049394;28;1914;-72
2022/10/02 16:38:57;;;;;;;;;;;;;;;;;;5049056;28;1422;-74
2022/10/02 16:41:29;;;;;;;;;;;;;;;;;;5049261;28;1076;-74
2022/10/02 16:43:58;;;;;;;;;;;;;;;;;;5049095;28;1033;-71
2022/10/02 16:46:25;;;;;;;;;;;;;;;;;;5048084;28;1479;-71
2022/10/02 16:48:52;;;;;;;;;;;;;;;;;;5049063;28;1102;-73
2022/10/02 16:51:28;;;;;;;;;;;;;;;;;;5048493;28;1134;-70
2022/10/02 16:53:54;;;;;;;;;;;;;;;;;;5048151;28;1419;-73
2022/10/02 16:56:22;;;;;;;;;;;;;;;;;;5047253;28;1963;-72
2022/10/02 16:58:50;;;;;;;;;;;;;;;;;;5049062;28;1071;-71
2022/10/02 17:01:21;;;;;;;;;;;;;;;;;;5048537;28;1096;-72
2022/10/02 17:04:04;;;;;;;;;;;;;;;;;;5048693;28;922;-70
2022/10/02 17:06:32;;;;;;;;;;;;;;;;;;5048212;28;1436;-71
2022/10/02 17:08:58;;;;;;;;;;;;;;;;;;5055656;28;1427;-71
2022/10/02 17:11:25;;;;;;;;;;;;;;;;;;5047561;28;1152;-74
2022/10/02 17:14:00;;;;;;;;;;;;;;;;;;5048099;28;1502;-71
2022/10/02 17:16:27;;;;;;;;;;;;;;;;;;5042148;28;1946;-73
2022/10/02 17:18:55;;;;;;;;;;;;;;;;;;5047352;28;1649;-69
2022/10/02 17:21:21;;;;;;;;;;;;;;;;;;5047735;28;1270;-73
2022/10/02 17:23:53;;;;;;;;;;;;;;;;;;5049788;28;1255;-72
2022/10/02 17:26:25;;;;;;;;;;;;;;;;;;5052445;28;1330;-73
2022/10/02 17:28:52;;;;;;;;;;;;;;;;;;5050091;28;1177;-72
2022/10/02 17:31:27;;;;;;;;;;;;;;;;;;5047752;28;1412;-74
2022/10/02 17:33:55;;;;;;;;;;;;;;;;;;5049147;28;1383;-72
2022/10/02 17:36:21;;;;;;;;;;;;;;;;;;5052650;28;1977;-72
2022/10/02 17:38:57;;;;;;;;;;;;;;;;;;5053491;28;996;-73
2022/10/02 17:41:27;;;;;;;;;;;;;;;;;;5052959;28;873;-73
2022/10/02 17:43:56;;;;;;;;;;;;;;;;;;5056300;28;1779;-72